Terminal Aerodrome Forecast
Issued by NWS Jackson, MS

Home | Current Version | Previous Version | Text Only | Print | Product List | Glossary On
Versions: 1 2 3 4 5 6 7 8 9 10 11 12 13 14
822
FTUS44 KJAN 241149
TAFGWO
TAF
KGWO 241149Z 2412/2512 00000KT P6SM BKN008 OVC015
     FM241300 35009KT P6SM VCTS BKN035CB
     FM241700 01010KT P6SM OVC050
     FM250000 01004KT P6SM BKN250=

USA.gov is the U.S. government's official web portal to all federal, state and local government web resources and services.